createdAt,value
2022-09-06T00:03:35.873Z,18.74
2022-09-06T00:07:37.644Z,18.80
2022-09-06T00:11:39.161Z,18.67
2022-09-06T00:15:40.715Z,18.75
2022-09-06T00:19:42.241Z,18.72
2022-09-06T00:23:44.058Z,18.74
2022-09-06T00:27:45.504Z,18.58
2022-09-06T00:31:47.007Z,18.78
2022-09-06T00:35:49.245Z,18.53
2022-09-06T00:39:50.772Z,18.36
2022-09-06T00:43:52.304Z,18.62
2022-09-06T00:47:54.479Z,18.73
2022-09-06T00:52:01.667Z,18.45
2022-09-06T00:56:03.371Z,18.54
2022-09-06T01:00:07.657Z,18.56
2022-09-06T01:04:09.930Z,18.23
2022-09-06T01:08:24.372Z,18.23
2022-09-06T01:12:47.533Z,18.06
2022-09-06T01:17:34.910Z,18.39
2022-09-06T01:22:24.380Z,17.82
2022-09-06T01:26:31.692Z,17.83
2022-09-06T01:30:37.654Z,17.97
2022-09-06T01:34:45.496Z,17.73
2022-09-06T01:38:46.932Z,18.36
2022-09-06T01:42:50.904Z,17.86
2022-09-06T01:47:13.127Z,17.49
2022-09-06T01:51:57.259Z,17.43
2022-09-06T01:56:12.130Z,17.39
2022-09-06T02:00:17.877Z,17.20
2022-09-06T02:04:26.583Z,17.48
2022-09-06T02:08:34.525Z,17.37
2022-09-06T02:12:41.504Z,17.66
2022-09-06T02:16:46.551Z,17.36
2022-09-06T02:20:54.528Z,17.51
2022-09-06T02:24:58.876Z,17.11
2022-09-06T02:29:00.936Z,17.23
2022-09-06T02:33:09.711Z,17.36
2022-09-06T02:37:11.850Z,17.42
2022-09-06T02:41:18.340Z,17.42
2022-09-06T02:45:19.857Z,17.23
2022-09-06T02:49:21.379Z,17.04
2022-09-06T02:53:22.893Z,17.36
2022-09-06T02:57:24.400Z,17.19
2022-09-06T03:01:26.458Z,17.23
2022-09-06T03:05:28.350Z,16.58
2022-09-06T03:09:29.791Z,17.16
2022-09-06T03:13:31.320Z,16.76
2022-09-06T03:17:32.833Z,16.86
2022-09-06T03:21:34.345Z,16.87
2022-09-06T03:25:36.084Z,17.07
2022-09-06T03:29:37.548Z,16.77
2022-09-06T03:33:39.137Z,16.64
2022-09-06T03:37:40.584Z,17.13
2022-09-06T03:41:42.088Z,16.32
2022-09-06T03:45:48.413Z,16.41
2022-09-06T03:49:50.912Z,16.47
2022-09-06T03:53:52.555Z,16.57
2022-09-06T03:57:54.179Z,16.46
2022-09-06T04:01:55.734Z,15.86
2022-09-06T04:05:57.397Z,16.18
2022-09-06T04:09:58.855Z,15.98
2022-09-06T04:14:00.375Z,15.88
2022-09-06T04:18:03.979Z,16.47
2022-09-06T04:22:08.731Z,15.88
2022-09-06T04:26:10.204Z,16.18
2022-09-06T04:30:11.744Z,15.98
2022-09-06T04:34:13.217Z,16.63
2022-09-06T04:38:14.669Z,15.83
2022-09-06T04:42:16.213Z,16.24
2022-09-06T04:46:27.717Z,16.48
2022-09-06T04:50:29.642Z,15.88
2022-09-06T04:54:39.258Z,16.42
2022-09-06T04:58:40.748Z,16.34
2022-09-06T05:02:42.555Z,16.62
2022-09-06T05:06:44.200Z,16.62
2022-09-06T05:10:45.689Z,16.14
2022-09-06T05:14:47.180Z,16.20
2022-09-06T05:18:48.690Z,16.43
2022-09-06T05:22:54.320Z,16.20
2022-09-06T05:26:55.770Z,16.67
2022-09-06T05:31:24.181Z,16.49
2022-09-06T05:35:25.758Z,16.53
2022-09-06T05:39:27.245Z,17.19
2022-09-06T05:43:28.744Z,17.30
2022-09-06T05:47:34.300Z,17.01
2022-09-06T05:51:35.919Z,16.95
2022-09-06T05:55:40.066Z,17.39
2022-09-06T05:59:44.269Z,16.91
2022-09-06T06:04:00.381Z,17.36
2022-09-06T06:08:02.087Z,17.24
2022-09-06T06:12:04.149Z,17.17
2022-09-06T06:16:07.400Z,17.57
2022-09-06T06:20:09.203Z,16.89
2022-09-06T06:24:10.705Z,17.60
2022-09-06T06:28:12.167Z,17.32
2022-09-06T06:32:13.608Z,17.64
2022-09-06T06:36:15.007Z,17.53
2022-09-06T06:40:16.488Z,17.65
2022-09-06T06:44:18.175Z,17.33
2022-09-06T06:48:20.034Z,17.96
2022-09-06T06:52:21.999Z,17.69
2022-09-06T06:56:35.732Z,18.36
2022-09-06T07:00:37.280Z,18.37
2022-09-06T07:04:38.748Z,18.29
2022-09-06T07:08:40.893Z,18.76
2022-09-06T07:12:42.404Z,18.60
2022-09-06T07:16:44.469Z,19.00
2022-09-06T07:25:08.591Z,19.22
2022-09-06T07:29:10.165Z,19.21
2022-09-06T07:33:11.801Z,19.51
2022-09-06T07:37:13.270Z,18.61
2022-09-06T07:41:14.749Z,19.30
2022-09-06T07:45:17.031Z,19.71
2022-09-06T07:49:18.513Z,20.11
2022-09-06T07:53:26.265Z,19.70
2022-09-06T07:57:32.025Z,20.02
2022-09-06T08:01:35.344Z,19.75
2022-09-06T08:09:58.411Z,20.73
2022-09-06T08:14:01.531Z,20.37
2022-09-06T08:18:02.988Z,20.31
2022-09-06T08:22:04.503Z,20.93
2022-09-06T08:26:06.088Z,21.55
2022-09-06T08:30:08.336Z,21.75
2022-09-06T08:34:12.594Z,21.50
2022-09-06T08:38:14.064Z,21.28
2022-09-06T08:42:15.591Z,21.45
2022-09-06T08:46:19.944Z,22.14
2022-09-06T08:50:21.914Z,21.53
2022-09-06T08:54:40.961Z,22.00
2022-09-06T08:59:00.695Z,22.44
2022-09-06T09:03:16.504Z,22.07
2022-09-06T09:07:38.729Z,22.07
2022-09-06T09:11:45.182Z,21.83
2022-09-06T09:15:46.648Z,22.16
2022-09-06T09:19:48.541Z,22.08
2022-09-06T09:23:56.242Z,22.69
2022-09-06T09:27:58.251Z,23.13
2022-09-06T09:31:59.837Z,22.97
2022-09-06T09:36:07.290Z,22.42
2022-09-06T09:40:29.272Z,22.21
2022-09-06T09:44:30.911Z,22.91
2022-09-06T09:48:32.400Z,23.21
2022-09-06T09:52:43.723Z,22.94
2022-09-06T09:56:52.857Z,23.13
2022-09-06T10:01:21.527Z,23.49
2022-09-06T10:05:23.228Z,24.07
2022-09-06T10:09:36.011Z,23.96
2022-09-06T10:13:37.481Z,24.42
2022-09-06T10:17:51.355Z,23.36
2022-09-06T10:22:00.957Z,23.76
2022-09-06T10:26:07.111Z,24.45
2022-09-06T10:30:09.636Z,24.76
2022-09-06T10:34:42.074Z,24.62
2022-09-06T10:39:01.590Z,23.95
2022-09-06T10:43:08.860Z,25.00
2022-09-06T10:47:13.215Z,25.50
2022-09-06T10:51:45.756Z,25.46
2022-09-06T10:55:59.776Z,25.49
2022-09-06T11:00:13.148Z,25.63
2022-09-06T11:04:27.289Z,24.85
2022-09-06T11:08:47.213Z,24.72
2022-09-06T11:13:00.131Z,25.37
2022-09-06T11:17:07.629Z,24.82
2022-09-06T11:21:40.366Z,23.97
2022-09-06T11:26:16.858Z,24.87
2022-09-06T11:30:19.001Z,24.72
2022-09-06T11:34:24.475Z,23.85
2022-09-06T11:38:27.146Z,24.04
2022-09-06T11:42:46.395Z,24.22
2022-09-06T11:46:48.421Z,24.39
2022-09-06T11:51:01.822Z,24.41
2022-09-06T11:55:04.232Z,24.45
2022-09-06T11:59:21.532Z,23.58
2022-09-06T12:08:10.771Z,24.32
2022-09-06T12:12:40.357Z,23.99
2022-09-06T12:17:07.146Z,23.98
2022-09-06T12:21:10.325Z,23.58
2022-09-06T12:25:35.071Z,23.50
2022-09-06T12:29:36.866Z,23.35
2022-09-06T12:33:39.275Z,23.73
2022-09-06T12:37:55.262Z,24.02
2022-09-06T12:42:22.018Z,23.42
2022-09-06T12:46:25.594Z,23.91
2022-09-06T12:50:28.290Z,23.62
2022-09-06T12:54:30.080Z,24.59
2022-09-06T12:58:32.017Z,24.32
2022-09-06T13:02:42.952Z,25.10
2022-09-06T13:06:46.293Z,24.68
2022-09-06T13:10:48.122Z,24.86
2022-09-06T13:14:53.796Z,24.79
2022-09-06T13:19:10.118Z,24.32
2022-09-06T13:23:20.171Z,25.16
2022-09-06T13:27:35.667Z,25.27
2022-09-06T13:31:38.255Z,24.30
2022-09-06T13:35:39.834Z,25.28
2022-09-06T13:39:46.264Z,25.48
2022-09-06T13:43:48.513Z,25.48
2022-09-06T13:47:50.032Z,24.80
2022-09-06T13:51:53.432Z,25.03
2022-09-06T13:55:55.074Z,25.21
2022-09-06T13:59:56.521Z,24.28
2022-09-06T14:03:58.008Z,24.10
2022-09-06T14:07:59.978Z,25.14
2022-09-06T14:12:02.169Z,25.15
2022-09-06T14:16:05.299Z,25.33
2022-09-06T14:20:07.478Z,25.06
2022-09-06T14:24:09.555Z,24.67
2022-09-06T14:28:11.061Z,25.27
2022-09-06T14:32:12.559Z,24.45
2022-09-06T14:36:17.188Z,24.82
2022-09-06T14:40:18.707Z,25.15
2022-09-06T14:44:20.215Z,25.09
2022-09-06T14:48:22.707Z,24.77
2022-09-06T14:52:24.284Z,24.62
2022-09-06T14:56:26.962Z,24.43
2022-09-06T15:00:28.882Z,23.94
2022-09-06T15:04:30.367Z,24.16
2022-09-06T15:08:32.497Z,24.19
2022-09-06T15:12:33.984Z,23.88
2022-09-06T15:16:36.193Z,24.24
2022-09-06T15:20:37.728Z,24.06
2022-09-06T15:24:40.498Z,24.93
2022-09-06T15:28:44.280Z,22.93
2022-09-06T15:32:46.217Z,23.50
2022-09-06T15:36:48.142Z,23.61
2022-09-06T15:40:50.636Z,23.31
2022-09-06T15:44:52.131Z,23.42
2022-09-06T15:48:53.914Z,22.65
2022-09-06T15:52:55.381Z,22.90
2022-09-06T15:56:58.057Z,22.89
2022-09-06T16:01:05.695Z,23.12
2022-09-06T16:05:07.462Z,22.99
2022-09-06T16:09:11.184Z,22.90
2022-09-06T16:13:12.976Z,22.76
2022-09-06T16:17:14.468Z,22.52
2022-09-06T16:21:19.191Z,22.13
2022-09-06T16:25:20.956Z,22.32
2022-09-06T16:29:22.427Z,22.31
2022-09-06T16:33:23.909Z,22.55
2022-09-06T16:37:25.423Z,21.76
2022-09-06T16:41:37.203Z,21.51
2022-09-06T16:45:39.773Z,21.91
2022-09-06T16:49:41.758Z,21.82
2022-09-06T16:53:45.055Z,21.04
2022-09-06T16:57:46.629Z,21.43
2022-09-06T17:01:48.296Z,20.96
2022-09-06T17:05:53.383Z,21.15
2022-09-06T17:09:54.818Z,21.31
2022-09-06T17:13:57.517Z,20.88
2022-09-06T17:17:58.985Z,20.86
2022-09-06T17:22:00.425Z,20.64
2022-09-06T17:26:02.567Z,20.39
2022-09-06T17:30:04.980Z,20.55
2022-09-06T17:34:07.643Z,20.35
2022-09-06T17:38:09.095Z,20.48
2022-09-06T17:42:11.102Z,20.63
2022-09-06T17:46:12.580Z,19.97
2022-09-06T17:50:14.192Z,20.08
2022-09-06T17:54:16.967Z,19.97
2022-09-06T17:58:19.948Z,20.31
2022-09-06T18:02:21.536Z,20.06
2022-09-06T18:06:25.068Z,19.87
2022-09-06T18:10:26.523Z,19.71
2022-09-06T18:14:28.598Z,19.43
2022-09-06T18:18:31.487Z,19.69
2022-09-06T18:22:33.062Z,19.54
2022-09-06T18:26:34.977Z,19.59
2022-09-06T18:30:36.682Z,19.12
2022-09-06T18:34:38.237Z,19.42
2022-09-06T18:38:40.326Z,19.76
2022-09-06T18:42:44.724Z,19.47
2022-09-06T18:46:46.853Z,19.38
2022-09-06T18:50:48.437Z,19.12
2022-09-06T18:54:50.050Z,19.70
2022-09-06T18:58:58.611Z,19.38
2022-09-06T19:03:00.220Z,19.26
2022-09-06T19:07:02.711Z,18.93
2022-09-06T19:11:07.775Z,19.00
2022-09-06T19:15:10.734Z,19.12
2022-09-06T19:19:12.291Z,19.25
2022-09-06T19:23:13.770Z,18.97
2022-09-06T19:27:15.510Z,19.53
2022-09-06T19:31:18.462Z,19.05
2022-09-06T19:35:20.016Z,19.07
2022-09-06T19:39:21.683Z,18.97
2022-09-06T19:43:23.435Z,18.84
2022-09-06T19:47:24.891Z,19.18
2022-09-06T19:51:26.622Z,19.43
2022-09-06T19:55:35.399Z,19.27
2022-09-06T19:59:36.969Z,19.19
2022-09-06T20:03:39.478Z,19.20
2022-09-06T20:07:40.959Z,19.15
2022-09-06T20:11:42.751Z,19.11
2022-09-06T20:15:44.203Z,18.77
2022-09-06T20:19:45.647Z,18.99
2022-09-06T20:23:52.202Z,19.01
2022-09-06T20:27:53.638Z,19.24
2022-09-06T20:31:55.128Z,18.96
2022-09-06T20:36:04.385Z,18.83
2022-09-06T20:40:07.463Z,19.27
2022-09-06T20:44:09.024Z,18.58
2022-09-06T20:48:10.801Z,18.57
2022-09-06T20:52:12.251Z,18.42
2022-09-06T20:56:16.624Z,18.91
2022-09-06T21:00:18.138Z,18.38
2022-09-06T21:04:19.648Z,18.12
2022-09-06T21:08:21.094Z,18.00
2022-09-06T21:12:22.609Z,17.76
2022-09-06T21:16:27.448Z,17.98
2022-09-06T21:20:29.825Z,18.18
2022-09-06T21:24:31.264Z,18.49
2022-09-06T21:28:36.640Z,18.84
2022-09-06T21:32:38.240Z,18.40
2022-09-06T21:36:40.381Z,18.24
2022-09-06T21:40:41.953Z,18.59
2022-09-06T21:44:43.444Z,18.45
2022-09-06T21:48:47.277Z,18.15
2022-09-06T21:52:48.720Z,18.43
2022-09-06T21:56:50.226Z,18.39
2022-09-06T22:00:53.698Z,17.96
2022-09-06T22:04:55.231Z,18.03
2022-09-06T22:08:58.714Z,17.75
2022-09-06T22:13:00.179Z,17.92
2022-09-06T22:17:01.699Z,17.99
2022-09-06T22:21:09.851Z,17.98
2022-09-06T22:25:12.006Z,17.90
2022-09-06T22:29:14.992Z,18.26
2022-09-06T22:33:16.449Z,18.05
2022-09-06T22:37:17.936Z,18.10
2022-09-06T22:41:19.393Z,18.06
2022-09-06T22:45:20.863Z,18.00
2022-09-06T22:49:22.852Z,17.48
2022-09-06T22:53:24.393Z,17.44
2022-09-06T22:57:26.984Z,18.00
2022-09-06T23:01:28.813Z,17.64
2022-09-06T23:05:31.768Z,18.07
2022-09-06T23:09:33.270Z,17.69
2022-09-06T23:13:34.809Z,17.67
2022-09-06T23:17:36.304Z,17.47
2022-09-06T23:21:38.865Z,17.53
2022-09-06T23:25:40.305Z,17.36
2022-09-06T23:29:43.807Z,17.87
2022-09-06T23:33:45.306Z,17.85
2022-09-06T23:37:49.954Z,17.18
2022-09-06T23:41:51.512Z,17.52
2022-09-06T23:45:52.976Z,17.49
2022-09-06T23:49:54.415Z,17.55
2022-09-06T23:53:55.894Z,17.63
2022-09-06T23:57:58.464Z,17.94
